SEYT2: Wichita River near Seymour, TX

Data processed at Tue May 21 2019 22:10


All information presented herein is the property of the government of the United States of America and may be revised or deleted at any time without prior notice.
Dissemination of this information without the expressed written consent of the Public Affairs Office, Tulsa District U.S. Army Corps of Engineers is strictly prohibited.
These data are gathered electronically and, as presented, have not undergone any form of quality control. These data are not guaranteed to be valid or correct.
Go to home page.
Go to station list.
Go to home page.

Upstream stations:

Downstream station:
Previous Day
Next Day
Current Day
    
SHEF ID:       SEYT2     Wichita Rive nr Seymour, TX
STATION TYPE:  
Regulating: Stage =    12.00, Flow =     1963

               PRECIP     STAGE  RIV-FLOW  BAT-LOAD
                   in        ft       cfs      volt
              Ccp-Rev   Ccp-Rev   Ccp-Rev   Ccp-Rev
(US/Central)
05/21 00:00      0.58      8.18       303     12.25
05/21 01:00      0.30      9.13       625     12.25
05/21 02:00      0.34     11.14      1539     12.25
05/21 03:00      0.06     12.44      2195     12.17
05/21 04:00      0.13     13.42      2642     12.09
05/21 05:00      0.01     14.55      3313     12.09
05/21 06:00      0.00     15.69      4329     12.17
05/21 07:00      0.00     15.83      4485     12.17
05/21 08:00      0.00     16.05      4794     12.17
05/21 09:00      0.00     16.18      4982     12.25
05/21 10:00      0.00     16.14      4923     13.05
05/21 11:00      0.00     16.01      4737     13.21
05/21 12:00      0.00      ----      ----     13.29
05/21 13:00      0.00      ----      ----     12.57
05/21 14:00      0.00     15.91      4596      ----
05/21 15:00      0.00     15.91      4596     13.68
05/21 16:00      0.00     16.05      4794     13.60
05/21 17:00      0.00     16.38      5405     12.81
05/21 18:00      0.00     16.42      5502     12.65
05/21 19:00      0.00     16.59      5933     12.65
05/21 20:00      0.00     16.54      5804     12.57
05/21 21:00      0.00     16.14      4923     12.41
05/21 22:00      ----      ----      ----      ----
05/21 23:00      ----      ----      ----      ----